sensor_id;sensor_type;location;lat;lon;timestamp;pressure;altitude;pressure_sealevel;temperature;humidity
63582;BME280;49727;51.078;17.066;2023-07-16T00:11:44;99600.50;;;21.60;59.60
63582;BME280;49727;51.078;17.066;2023-07-16T00:26:44;99591.38;;;21.44;60.51
63582;BME280;49727;51.078;17.066;2023-07-16T00:41:44;99589.09;;;21.30;61.33
63582;BME280;49727;51.078;17.066;2023-07-16T00:56:45;99581.38;;;21.17;62.31
63582;BME280;49727;51.078;17.066;2023-07-16T01:11:46;99583.13;;;21.01;63.18
63582;BME280;49727;51.078;17.066;2023-07-16T01:42:08;99545.53;;;20.60;64.67
63582;BME280;49727;51.078;17.066;2023-07-16T01:57:08;99546.97;;;20.46;65.48
63582;BME280;49727;51.078;17.066;2023-07-16T02:12:08;99543.88;;;20.37;66.20
63582;BME280;49727;51.078;17.066;2023-07-16T02:27:09;99568.41;;;20.31;66.38
63582;BME280;49727;51.078;17.066;2023-07-16T02:42:09;99595.38;;;20.25;66.64
63582;BME280;49727;51.078;17.066;2023-07-16T02:57:09;99594.66;;;20.30;67.09
63582;BME280;49727;51.078;17.066;2023-07-16T03:12:09;99622.75;;;20.29;67.04
63582;BME280;49727;51.078;17.066;2023-07-16T03:27:10;99643.38;;;20.35;67.24
63582;BME280;49727;51.078;17.066;2023-07-16T03:42:10;99780.34;;;20.58;67.75
63582;BME280;49727;51.078;17.066;2023-07-16T03:57:11;99802.56;;;21.11;67.41
63582;BME280;49727;51.078;17.066;2023-07-16T04:12:11;99815.31;;;21.72;67.34
63582;BME280;49727;51.078;17.066;2023-07-16T04:27:11;99847.22;;;22.74;65.42
63582;BME280;49727;51.078;17.066;2023-07-16T04:42:11;99866.97;;;23.40;62.47
63582;BME280;49727;51.078;17.066;2023-07-16T04:57:12;99881.38;;;23.88;60.33
63582;BME280;49727;51.078;17.066;2023-07-16T05:12:12;99913.34;;;24.34;58.65
63582;BME280;49727;51.078;17.066;2023-07-16T05:27:12;99937.44;;;24.99;56.58
63582;BME280;49727;51.078;17.066;2023-07-16T05:42:13;99940.16;;;25.45;54.50
63582;BME280;49727;51.078;17.066;2023-07-16T05:57:13;99933.72;;;25.96;52.58
63582;BME280;49727;51.078;17.066;2023-07-16T06:12:13;99971.72;;;26.48;50.56
63582;BME280;49727;51.078;17.066;2023-07-16T06:27:14;100002.50;;;27.03;48.62
63582;BME280;49727;51.078;17.066;2023-07-16T06:42:14;100015.09;;;27.05;48.09
63582;BME280;49727;51.078;17.066;2023-07-16T06:57:15;100037.09;;;27.24;47.10
63582;BME280;49727;51.078;17.066;2023-07-16T07:12:16;100056.06;;;27.49;46.46
63582;BME280;49727;51.078;17.066;2023-07-16T07:27:16;100042.44;;;28.27;44.19
63582;BME280;49727;51.078;17.066;2023-07-16T07:42:16;100040.53;;;28.47;43.89
63582;BME280;49727;51.078;17.066;2023-07-16T07:57:16;100039.88;;;29.50;42.00
63582;BME280;49727;51.078;17.066;2023-07-16T08:12:18;100019.63;;;30.49;40.01
63582;BME280;49727;51.078;17.066;2023-07-16T08:27:18;100008.06;;;32.05;38.12
63582;BME280;49727;51.078;17.066;2023-07-16T08:42:19;99993.13;;;32.90;35.91
63582;BME280;49727;51.078;17.066;2023-07-16T08:57:21;99977.69;;;32.63;34.54
63582;BME280;49727;51.078;17.066;2023-07-16T09:12:23;100024.59;;;30.47;37.41
63582;BME280;49727;51.078;17.066;2023-07-16T09:27:33;99971.75;;;29.38;41.23
63582;BME280;49727;51.078;17.066;2023-07-16T09:42:37;100000.59;;;30.75;41.41
63582;BME280;49727;51.078;17.066;2023-07-16T09:57:41;100021.00;;;32.05;39.57
63582;BME280;49727;51.078;17.066;2023-07-16T10:12:42;100055.50;;;31.17;39.33
63582;BME280;49727;51.078;17.066;2023-07-16T10:27:44;100066.63;;;30.61;40.74
63582;BME280;49727;51.078;17.066;2023-07-16T10:42:44;100075.84;;;29.49;42.71
63582;BME280;49727;51.078;17.066;2023-07-16T10:57:47;100090.31;;;28.78;44.38
63582;BME280;49727;51.078;17.066;2023-07-16T11:12:53;100106.38;;;27.83;46.01
63582;BME280;49727;51.078;17.066;2023-07-16T11:27:56;100105.91;;;27.76;46.59
63582;BME280;49727;51.078;17.066;2023-07-16T11:42:57;100106.97;;;28.58;46.08
63582;BME280;49727;51.078;17.066;2023-07-16T11:57:57;100121.41;;;28.68;45.14
63582;BME280;49727;51.078;17.066;2023-07-16T12:12:59;100120.03;;;28.90;43.69
63582;BME280;49727;51.078;17.066;2023-07-16T12:28:00;100112.00;;;29.51;42.59
63582;BME280;49727;51.078;17.066;2023-07-16T12:43:02;100111.63;;;29.58;42.67
63582;BME280;49727;51.078;17.066;2023-07-16T12:58:02;100104.03;;;30.01;42.04
63582;BME280;49727;51.078;17.066;2023-07-16T13:13:03;100098.47;;;30.07;41.56
63582;BME280;49727;51.078;17.066;2023-07-16T13:28:05;100127.25;;;29.76;41.89
63582;BME280;49727;51.078;17.066;2023-07-16T13:43:05;100131.97;;;30.23;42.15
63582;BME280;49727;51.078;17.066;2023-07-16T13:58:06;100137.09;;;31.21;40.70
63582;BME280;49727;51.078;17.066;2023-07-16T14:13:06;100121.69;;;31.34;39.97
63582;BME280;49727;51.078;17.066;2023-07-16T14:28:06;100120.28;;;30.59;40.89
63582;BME280;49727;51.078;17.066;2023-07-16T14:43:07;100120.19;;;29.18;43.85
63582;BME280;49727;51.078;17.066;2023-07-16T14:58:07;100104.66;;;28.70;44.79
63582;BME280;49727;51.078;17.066;2023-07-16T15:13:07;100083.78;;;28.01;46.31
63582;BME280;49727;51.078;17.066;2023-07-16T15:28:09;100090.47;;;28.14;46.64
63582;BME280;49727;51.078;17.066;2023-07-16T15:43:10;100088.44;;;28.49;46.02
63582;BME280;49727;51.078;17.066;2023-07-16T15:58:11;100072.16;;;29.01;46.03
63582;BME280;49727;51.078;17.066;2023-07-16T16:13:12;100074.91;;;28.82;46.01
63582;BME280;49727;51.078;17.066;2023-07-16T16:28:13;100071.03;;;28.64;46.23
63582;BME280;49727;51.078;17.066;2023-07-16T16:43:13;100057.47;;;28.06;45.95
63582;BME280;49727;51.078;17.066;2023-07-16T16:58:13;100079.13;;;27.73;46.73
63582;BME280;49727;51.078;17.066;2023-07-16T17:13:14;100083.72;;;27.48;46.42
63582;BME280;49727;51.078;17.066;2023-07-16T17:28:14;100102.16;;;27.27;46.93
63582;BME280;49727;51.078;17.066;2023-07-16T17:43:15;100110.56;;;26.96;47.51
63582;BME280;49727;51.078;17.066;2023-07-16T17:58:15;100113.69;;;26.63;48.04
63582;BME280;49727;51.078;17.066;2023-07-16T18:13:16;100112.16;;;26.26;47.90
63582;BME280;49727;51.078;17.066;2023-07-16T18:28:16;100120.66;;;25.99;47.74
63582;BME280;49727;51.078;17.066;2023-07-16T18:43:17;100119.84;;;25.57;47.96
63582;BME280;49727;51.078;17.066;2023-07-16T18:58:17;100135.81;;;25.07;48.01
63582;BME280;49727;51.078;17.066;2023-07-16T19:13:17;100146.22;;;24.57;49.12
63582;BME280;49727;51.078;17.066;2023-07-16T19:28:19;100151.66;;;24.09;50.74
63582;BME280;49727;51.078;17.066;2023-07-16T19:43:20;100158.06;;;23.93;51.58
63582;BME280;49727;51.078;17.066;2023-07-16T19:58:20;100151.25;;;24.28;52.55
63582;BME280;49727;51.078;17.066;2023-07-16T20:13:22;100150.41;;;24.75;52.40
63582;BME280;49727;51.078;17.066;2023-07-16T20:28:25;100161.31;;;24.75;52.12
63582;BME280;49727;51.078;17.066;2023-07-16T20:43:25;100157.00;;;24.37;52.70
63582;BME280;49727;51.078;17.066;2023-07-16T20:58:26;100183.34;;;23.66;53.09
63582;BME280;49727;51.078;17.066;2023-07-16T21:13:26;100179.00;;;22.93;53.51
63582;BME280;49727;51.078;17.066;2023-07-16T21:28:26;100172.91;;;22.42;53.94
63582;BME280;49727;51.078;17.066;2023-07-16T21:43:26;100184.91;;;21.95;54.76
63582;BME280;49727;51.078;17.066;2023-07-16T21:58:27;100150.94;;;21.92;54.68
63582;BME280;49727;51.078;17.066;2023-07-16T22:13:27;100179.47;;;21.78;55.76
63582;BME280;49727;51.078;17.066;2023-07-16T22:28:28;100198.19;;;21.62;55.83
63582;BME280;49727;51.078;17.066;2023-07-16T22:43:28;100206.63;;;21.66;56.09
63582;BME280;49727;51.078;17.066;2023-07-16T22:58:29;100196.03;;;21.64;56.26
63582;BME280;49727;51.078;17.066;2023-07-16T23:13:29;100184.41;;;21.52;56.02
63582;BME280;49727;51.078;17.066;2023-07-16T23:28:30;100199.91;;;21.40;55.38
63582;BME280;49727;51.078;17.066;2023-07-16T23:43:30;100193.22;;;21.30;55.10
63582;BME280;49727;51.078;17.066;2023-07-16T23:58:31;100187.50;;;21.44;54.88
